sensor_id;sensor_type;location;lat;lon;timestamp;pressure;altitude;pressure_sealevel;temperature;humidity
68329;BME280;55182;56.864;60.554;2023-02-15T00:01:09;77855.28;;;-143.60;70.51
68329;BME280;55182;56.864;60.554;2023-02-15T00:03:35;77863.31;;;-143.60;70.78
68329;BME280;55182;56.864;60.554;2023-02-15T00:06:01;77871.34;;;-143.60;70.96
68329;BME280;55182;56.864;60.554;2023-02-15T00:08:27;77875.38;;;-143.60;70.94
68329;BME280;55182;56.864;60.554;2023-02-15T00:10:52;77883.41;;;-143.60;71.16
68329;BME280;55182;56.864;60.554;2023-02-15T00:13:18;77889.44;;;-143.60;71.26
68329;BME280;55182;56.864;60.554;2023-02-15T00:15:44;77891.47;;;-143.60;71.48
68329;BME280;55182;56.864;60.554;2023-02-15T00:18:10;77895.47;;;-143.60;71.63
68329;BME280;55182;56.864;60.554;2023-02-15T00:20:35;77903.53;;;-143.60;71.34
68329;BME280;55182;56.864;60.554;2023-02-15T00:23:00;77905.53;;;-143.60;71.67
68329;BME280;55182;56.864;60.554;2023-02-15T00:25:26;77907.53;;;-143.60;71.70
68329;BME280;55182;56.864;60.554;2023-02-15T00:27:51;77913.56;;;-143.60;71.73
68329;BME280;55182;56.864;60.554;2023-02-15T00:30:17;77923.63;;;-143.60;72.08
68329;BME280;55182;56.864;60.554;2023-02-15T00:32:42;77939.72;;;-143.60;72.31
68329;BME280;55182;56.864;60.554;2023-02-15T00:35:08;77947.75;;;-143.60;72.60
68329;BME280;55182;56.864;60.554;2023-02-15T00:37:33;77947.75;;;-143.60;72.70
68329;BME280;55182;56.864;60.554;2023-02-15T00:40:01;77961.81;;;-143.60;73.04
68329;BME280;55182;56.864;60.554;2023-02-15T00:42:28;77971.88;;;-143.60;73.08
68329;BME280;55182;56.864;60.554;2023-02-15T00:44:54;77977.91;;;-143.60;73.28
68329;BME280;55182;56.864;60.554;2023-02-15T00:47:19;77987.97;;;-143.60;73.43
68329;BME280;55182;56.864;60.554;2023-02-15T00:49:45;77983.94;;;-143.60;73.73
68329;BME280;55182;56.864;60.554;2023-02-15T00:52:10;77987.97;;;-143.60;73.91
68329;BME280;55182;56.864;60.554;2023-02-15T00:54:36;77991.97;;;-143.60;73.93
68329;BME280;55182;56.864;60.554;2023-02-15T00:57:02;78004.03;;;-143.60;74.04
68329;BME280;55182;56.864;60.554;2023-02-15T00:59:27;78020.13;;;-143.60;74.37
68329;BME280;55182;56.864;60.554;2023-02-15T01:01:53;78034.19;;;-143.60;74.61
68329;BME280;55182;56.864;60.554;2023-02-15T01:04:18;78032.19;;;-143.60;74.64
68329;BME280;55182;56.864;60.554;2023-02-15T01:06:44;78042.22;;;-143.60;74.85
68329;BME280;55182;56.864;60.554;2023-02-15T01:09:09;78052.28;;;-143.60;75.06
68329;BME280;55182;56.864;60.554;2023-02-15T01:11:35;78058.31;;;-143.60;75.43
68329;BME280;55182;56.864;60.554;2023-02-15T01:14:01;78066.38;;;-143.60;76.00
68329;BME280;55182;56.864;60.554;2023-02-15T01:16:27;78076.41;;;-143.60;76.32
68329;BME280;55182;56.864;60.554;2023-02-15T01:18:53;78084.47;;;-143.60;76.54
68329;BME280;55182;56.864;60.554;2023-02-15T01:21:19;78088.47;;;-143.60;76.96
68329;BME280;55182;56.864;60.554;2023-02-15T01:23:45;78090.50;;;-143.60;77.35
68329;BME280;55182;56.864;60.554;2023-02-15T01:26:11;78096.53;;;-143.60;77.70
68329;BME280;55182;56.864;60.554;2023-02-15T01:28:37;78108.59;;;-143.60;78.27
68329;BME280;55182;56.864;60.554;2023-02-15T01:31:09;78112.59;;;-143.60;78.41
68329;BME280;55182;56.864;60.554;2023-02-15T01:33:36;78120.66;;;-143.60;78.95
68329;BME280;55182;56.864;60.554;2023-02-15T01:36:02;78122.66;;;-143.60;79.05
68329;BME280;55182;56.864;60.554;2023-02-15T01:38:28;78132.72;;;-143.60;79.23
68329;BME280;55182;56.864;60.554;2023-02-15T01:40:53;78140.75;;;-143.60;79.37
68329;BME280;55182;56.864;60.554;2023-02-15T01:43:19;78134.72;;;-143.60;79.69
68329;BME280;55182;56.864;60.554;2023-02-15T01:45:45;78142.75;;;-143.60;79.89
68329;BME280;55182;56.864;60.554;2023-02-15T01:48:25;78152.81;;;-143.60;79.92
68329;BME280;55182;56.864;60.554;2023-02-15T01:50:58;78144.78;;;-143.60;80.17
68329;BME280;55182;56.864;60.554;2023-02-15T01:53:44;78136.72;;;-143.60;80.04
68329;BME280;55182;56.864;60.554;2023-02-15T01:56:23;78138.75;;;-143.60;80.10
68329;BME280;55182;56.864;60.554;2023-02-15T01:58:51;78130.69;;;-143.60;79.71
68329;BME280;55182;56.864;60.554;2023-02-15T02:01:18;78124.66;;;-143.60;79.49
68329;BME280;55182;56.864;60.554;2023-02-15T02:06:10;78128.69;;;-143.60;79.08
68329;BME280;55182;56.864;60.554;2023-02-15T02:08:38;78132.72;;;-143.60;79.14
68329;BME280;55182;56.864;60.554;2023-02-15T02:11:11;78138.75;;;-143.60;78.88
68329;BME280;55182;56.864;60.554;2023-02-15T02:13:37;78136.72;;;-143.60;78.96
68329;BME280;55182;56.864;60.554;2023-02-15T02:18:41;78140.75;;;-143.60;78.43
68329;BME280;55182;56.864;60.554;2023-02-15T02:21:22;78138.75;;;-143.60;78.40
68329;BME280;55182;56.864;60.554;2023-02-15T02:26:37;78150.81;;;-143.60;78.64
68329;BME280;55182;56.864;60.554;2023-02-15T02:32:04;78168.91;;;-143.60;78.67
68329;BME280;55182;56.864;60.554;2023-02-15T02:34:35;78180.97;;;-143.60;78.44
68329;BME280;55182;56.864;60.554;2023-02-15T02:45:08;78213.13;;;-143.60;78.52
68329;BME280;55182;56.864;60.554;2023-02-15T02:47:43;78221.16;;;-143.60;78.80
68329;BME280;55182;56.864;60.554;2023-02-15T02:50:17;78233.22;;;-143.60;78.76
68329;BME280;55182;56.864;60.554;2023-02-15T02:52:47;78231.22;;;-143.60;79.10
68329;BME280;55182;56.864;60.554;2023-02-15T02:55:16;78235.25;;;-143.60;79.03
68329;BME280;55182;56.864;60.554;2023-02-15T02:57:54;78245.28;;;-143.60;79.06
68329;BME280;55182;56.864;60.554;2023-02-15T03:00:21;78249.31;;;-143.60;79.08
68329;BME280;55182;56.864;60.554;2023-02-15T03:02:49;78259.38;;;-143.60;79.11
68329;BME280;55182;56.864;60.554;2023-02-15T03:05:18;78251.31;;;-143.60;79.35
68329;BME280;55182;56.864;60.554;2023-02-15T03:07:46;78257.34;;;-143.60;79.46
68329;BME280;55182;56.864;60.554;2023-02-15T03:10:13;78261.38;;;-143.60;79.45
68329;BME280;55182;56.864;60.554;2023-02-15T03:12:39;78267.41;;;-143.60;79.48
68329;BME280;55182;56.864;60.554;2023-02-15T03:15:09;78279.47;;;-143.60;79.61
68329;BME280;55182;56.864;60.554;2023-02-15T03:17:37;78277.47;;;-143.60;79.54
68329;BME280;55182;56.864;60.554;2023-02-15T03:20:11;78281.47;;;-143.60;79.60
68329;BME280;55182;56.864;60.554;2023-02-15T03:22:40;78281.47;;;-143.60;79.65
68329;BME280;55182;56.864;60.554;2023-02-15T03:25:11;78285.50;;;-143.60;79.68
68329;BME280;55182;56.864;60.554;2023-02-15T03:27:43;78289.53;;;-143.60;79.71
68329;BME280;55182;56.864;60.554;2023-02-15T03:30:10;78305.63;;;-143.60;79.64
68329;BME280;55182;56.864;60.554;2023-02-15T03:32:37;78305.63;;;-143.60;79.72
68329;BME280;55182;56.864;60.554;2023-02-15T03:35:04;78305.63;;;-143.60;79.58
68329;BME280;55182;56.864;60.554;2023-02-15T03:42:30;78333.75;;;-143.60;79.87
68329;BME280;55182;56.864;60.554;2023-02-15T03:45:08;78339.78;;;-143.60;80.02
68329;BME280;55182;56.864;60.554;2023-02-15T03:47:38;78345.81;;;-143.60;80.17
68329;BME280;55182;56.864;60.554;2023-02-15T03:50:11;78343.81;;;-143.60;80.27
68329;BME280;55182;56.864;60.554;2023-02-15T03:52:38;78343.81;;;-143.60;80.49
68329;BME280;55182;56.864;60.554;2023-02-15T03:55:04;78343.81;;;-143.60;80.38
68329;BME280;55182;56.864;60.554;2023-02-15T03:57:30;78357.88;;;-143.60;80.37
68329;BME280;55182;56.864;60.554;2023-02-15T03:59:56;78355.88;;;-143.60;80.40
68329;BME280;55182;56.864;60.554;2023-02-15T04:02:22;78365.94;;;-143.60;80.71
68329;BME280;55182;56.864;60.554;2023-02-15T04:04:49;78369.94;;;-143.60;80.61
68329;BME280;55182;56.864;60.554;2023-02-15T04:07:14;78380.00;;;-143.60;80.93
68329;BME280;55182;56.864;60.554;2023-02-15T04:09:40;78382.00;;;-143.60;80.85
68329;BME280;55182;56.864;60.554;2023-02-15T04:12:05;78386.03;;;-143.60;80.86
68329;BME280;55182;56.864;60.554;2023-02-15T04:14:31;78380.00;;;-143.60;80.95
68329;BME280;55182;56.864;60.554;2023-02-15T04:16:56;78373.97;;;-143.60;80.76
68329;BME280;55182;56.864;60.554;2023-02-15T04:19:22;78371.97;;;-143.60;80.64
68329;BME280;55182;56.864;60.554;2023-02-15T04:21:47;78367.94;;;-143.60;80.35
68329;BME280;55182;56.864;60.554;2023-02-15T04:24:13;78363.91;;;-143.60;80.14
68329;BME280;55182;56.864;60.554;2023-02-15T04:26:39;78367.94;;;-143.60;80.14
68329;BME280;55182;56.864;60.554;2023-02-15T04:29:05;78357.88;;;-143.60;80.06
68329;BME280;55182;56.864;60.554;2023-02-15T04:31:30;78357.88;;;-143.60;80.00
68329;BME280;55182;56.864;60.554;2023-02-15T04:33:56;78351.84;;;-143.60;79.84
68329;BME280;55182;56.864;60.554;2023-02-15T04:36:21;78345.81;;;-143.60;79.81
68329;BME280;55182;56.864;60.554;2023-02-15T04:38:47;78341.81;;;-143.60;79.63
68329;BME280;55182;56.864;60.554;2023-02-15T04:41:12;78337.78;;;-143.60;79.44
68329;BME280;55182;56.864;60.554;2023-02-15T04:43:38;78329.75;;;-143.60;79.02
68329;BME280;55182;56.864;60.554;2023-02-15T04:46:04;78325.72;;;-143.60;78.86
68329;BME280;55182;56.864;60.554;2023-02-15T04:48:29;78323.72;;;-143.60;78.49
68329;BME280;55182;56.864;60.554;2023-02-15T04:50:55;78321.69;;;-143.60;78.28
68329;BME280;55182;56.864;60.554;2023-02-15T04:53:20;78319.69;;;-143.60;78.31
68329;BME280;55182;56.864;60.554;2023-02-15T04:55:46;78315.66;;;-143.60;77.99
68329;BME280;55182;56.864;60.554;2023-02-15T04:58:12;78313.66;;;-143.60;78.11
68329;BME280;55182;56.864;60.554;2023-02-15T05:00:37;78313.66;;;-143.60;77.84
68329;BME280;55182;56.864;60.554;2023-02-15T05:03:03;78317.69;;;-143.60;77.57
68329;BME280;55182;56.864;60.554;2023-02-15T05:05:29;78311.66;;;-143.60;77.50
68329;BME280;55182;56.864;60.554;2023-02-15T05:07:54;78313.66;;;-143.60;77.52
68329;BME280;55182;56.864;60.554;2023-02-15T05:10:19;78317.69;;;-143.60;77.26
68329;BME280;55182;56.864;60.554;2023-02-15T05:12:45;78315.66;;;-143.60;77.23
68329;BME280;55182;56.864;60.554;2023-02-15T05:15:10;78317.69;;;-143.60;77.16
68329;BME280;55182;56.864;60.554;2023-02-15T05:17:36;78311.66;;;-143.60;77.00
68329;BME280;55182;56.864;60.554;2023-02-15T05:20:01;78309.63;;;-143.60;77.21
68329;BME280;55182;56.864;60.554;2023-02-15T05:22:27;78303.59;;;-143.60;77.10
68329;BME280;55182;56.864;60.554;2023-02-15T05:24:52;78309.63;;;-143.60;76.95
68329;BME280;55182;56.864;60.554;2023-02-15T05:27:18;78311.66;;;-143.60;77.14
68329;BME280;55182;56.864;60.554;2023-02-15T05:29:43;78303.59;;;-143.60;77.27
68329;BME280;55182;56.864;60.554;2023-02-15T05:32:09;78293.56;;;-143.60;77.05
68329;BME280;55182;56.864;60.554;2023-02-15T05:34:34;78281.47;;;-143.60;77.12
68329;BME280;55182;56.864;60.554;2023-02-15T05:36:59;78279.47;;;-143.60;77.00
68329;BME280;55182;56.864;60.554;2023-02-15T05:39:25;78263.38;;;-143.60;77.03
68329;BME280;55182;56.864;60.554;2023-02-15T05:41:51;78255.34;;;-143.60;76.60
68329;BME280;55182;56.864;60.554;2023-02-15T05:44:16;78249.31;;;-143.60;76.25
68329;BME280;55182;56.864;60.554;2023-02-15T05:46:42;78251.31;;;-143.60;75.74
68329;BME280;55182;56.864;60.554;2023-02-15T05:49:07;78251.31;;;-143.60;75.29
68329;BME280;55182;56.864;60.554;2023-02-15T05:51:33;78257.34;;;-143.60;75.13
68329;BME280;55182;56.864;60.554;2023-02-15T05:53:58;78259.38;;;-143.60;74.77
68329;BME280;55182;56.864;60.554;2023-02-15T05:56:24;78251.31;;;-143.60;74.30
68329;BME280;55182;56.864;60.554;2023-02-15T05:58:49;78249.31;;;-143.60;73.89
68329;BME280;55182;56.864;60.554;2023-02-15T06:01:18;78249.31;;;-143.60;73.64
68329;BME280;55182;56.864;60.554;2023-02-15T06:03:44;78249.31;;;-143.60;73.70
68329;BME280;55182;56.864;60.554;2023-02-15T06:06:09;78247.31;;;-143.60;74.01
68329;BME280;55182;56.864;60.554;2023-02-15T06:08:36;78249.31;;;-143.60;74.34
68329;BME280;55182;56.864;60.554;2023-02-15T06:11:02;78241.28;;;-143.60;74.38
68329;BME280;55182;56.864;60.554;2023-02-15T06:13:28;78239.25;;;-143.60;74.26
68329;BME280;55182;56.864;60.554;2023-02-15T06:15:53;78235.25;;;-143.60;73.88
68329;BME280;55182;56.864;60.554;2023-02-15T06:18:19;78229.22;;;-143.60;73.65
68329;BME280;55182;56.864;60.554;2023-02-15T06:20:47;78229.22;;;-143.60;73.57
68329;BME280;55182;56.864;60.554;2023-02-15T06:23:13;78229.22;;;-143.60;73.71
68329;BME280;55182;56.864;60.554;2023-02-15T06:25:38;78233.22;;;-143.60;73.51
68329;BME280;55182;56.864;60.554;2023-02-15T06:28:04;78235.25;;;-143.60;73.49
68329;BME280;55182;56.864;60.554;2023-02-15T06:30:29;78225.19;;;-143.60;73.44
68329;BME280;55182;56.864;60.554;2023-02-15T06:32:55;78227.19;;;-143.60;73.42
68329;BME280;55182;56.864;60.554;2023-02-15T06:35:21;78213.13;;;-143.60;73.46
68329;BME280;55182;56.864;60.554;2023-02-15T06:37:46;78213.13;;;-143.60;72.94
68329;BME280;55182;56.864;60.554;2023-02-15T06:40:12;78209.09;;;-143.60;73.32
68329;BME280;55182;56.864;60.554;2023-02-15T06:42:38;78205.09;;;-143.60;73.35
68329;BME280;55182;56.864;60.554;2023-02-15T06:45:04;78201.06;;;-143.60;73.32
68329;BME280;55182;56.864;60.554;2023-02-15T06:47:29;78201.06;;;-143.60;73.17
68329;BME280;55182;56.864;60.554;2023-02-15T06:49:55;78197.03;;;-143.60;73.01
68329;BME280;55182;56.864;60.554;2023-02-15T06:52:20;78182.97;;;-143.60;72.76
68329;BME280;55182;56.864;60.554;2023-02-15T06:54:46;78168.91;;;-143.60;73.14
68329;BME280;55182;56.864;60.554;2023-02-15T06:57:11;78152.81;;;-143.60;72.52
68329;BME280;55182;56.864;60.554;2023-02-15T06:59:37;78148.78;;;-143.60;72.44
68329;BME280;55182;56.864;60.554;2023-02-15T07:02:02;78136.72;;;-143.60;72.24
68329;BME280;55182;56.864;60.554;2023-02-15T07:04:28;78120.66;;;-143.60;72.06
68329;BME280;55182;56.864;60.554;2023-02-15T07:06:53;78116.63;;;-143.60;71.50
68329;BME280;55182;56.864;60.554;2023-02-15T07:09:19;78102.56;;;-143.60;71.36
68329;BME280;55182;56.864;60.554;2023-02-15T07:11:45;78086.47;;;-143.60;70.92
68329;BME280;55182;56.864;60.554;2023-02-15T07:14:10;78072.41;;;-143.60;70.20
68329;BME280;55182;56.864;60.554;2023-02-15T07:16:35;78054.31;;;-143.60;70.12
68329;BME280;55182;56.864;60.554;2023-02-15T07:19:01;78040.22;;;-143.60;69.38
68329;BME280;55182;56.864;60.554;2023-02-15T07:21:26;78032.19;;;-143.60;69.40
68329;BME280;55182;56.864;60.554;2023-02-15T07:23:52;78032.19;;;-143.60;68.91
68329;BME280;55182;56.864;60.554;2023-02-15T07:26:17;78018.09;;;-143.60;68.60
68329;BME280;55182;56.864;60.554;2023-02-15T07:28:43;78008.06;;;-143.60;68.16
68329;BME280;55182;56.864;60.554;2023-02-15T07:31:08;78004.03;;;-143.60;68.42
68329;BME280;55182;56.864;60.554;2023-02-15T07:33:34;77998.00;;;-143.60;68.66
68329;BME280;55182;56.864;60.554;2023-02-15T07:36:00;77989.97;;;-143.60;68.36
68329;BME280;55182;56.864;60.554;2023-02-15T07:38:27;77983.94;;;-143.60;68.23
68329;BME280;55182;56.864;60.554;2023-02-15T07:41:02;77973.88;;;-143.60;67.96
68329;BME280;55182;56.864;60.554;2023-02-15T07:43:28;77969.88;;;-143.60;68.01
68329;BME280;55182;56.864;60.554;2023-02-15T07:45:54;77959.81;;;-143.60;67.86
68329;BME280;55182;56.864;60.554;2023-02-15T07:48:19;77947.75;;;-143.60;67.59
68329;BME280;55182;56.864;60.554;2023-02-15T07:50:44;77951.78;;;-143.60;66.87
68329;BME280;55182;56.864;60.554;2023-02-15T07:53:10;77941.72;;;-143.60;67.64
68329;BME280;55182;56.864;60.554;2023-02-15T07:55:35;77929.66;;;-143.60;66.97
68329;BME280;55182;56.864;60.554;2023-02-15T07:58:01;77915.59;;;-143.60;66.91
68329;BME280;55182;56.864;60.554;2023-02-15T08:00:26;77905.53;;;-143.60;67.46
68329;BME280;55182;56.864;60.554;2023-02-15T08:02:52;77901.50;;;-143.60;66.83
68329;BME280;55182;56.864;60.554;2023-02-15T08:05:18;77897.50;;;-143.60;65.63
68329;BME280;55182;56.864;60.554;2023-02-15T08:07:44;77891.47;;;-143.60;65.42
68329;BME280;55182;56.864;60.554;2023-02-15T08:10:09;77879.41;;;-143.60;65.87
68329;BME280;55182;56.864;60.554;2023-02-15T08:12:35;77875.38;;;-143.60;65.18
68329;BME280;55182;56.864;60.554;2023-02-15T08:15:00;77871.34;;;-143.60;65.39
68329;BME280;55182;56.864;60.554;2023-02-15T08:17:25;77859.28;;;-143.60;64.77
68329;BME280;55182;56.864;60.554;2023-02-15T08:19:51;77861.31;;;-143.60;64.94
68329;BME280;55182;56.864;60.554;2023-02-15T08:22:16;77853.25;;;-143.60;65.38
68329;BME280;55182;56.864;60.554;2023-02-15T08:24:42;77857.28;;;-143.60;65.31
68329;BME280;55182;56.864;60.554;2023-02-15T08:27:09;77855.28;;;-143.60;65.59
68329;BME280;55182;56.864;60.554;2023-02-15T08:29:35;77851.25;;;-143.60;65.82
68329;BME280;55182;56.864;60.554;2023-02-15T08:32:02;77851.25;;;-143.60;65.25
68329;BME280;55182;56.864;60.554;2023-02-15T08:34:29;77843.22;;;-143.60;65.31
68329;BME280;55182;56.864;60.554;2023-02-15T08:36:55;77843.22;;;-143.60;65.12
68329;BME280;55182;56.864;60.554;2023-02-15T08:39:20;77843.22;;;-143.60;65.31
68329;BME280;55182;56.864;60.554;2023-02-15T08:41:46;77845.22;;;-143.60;64.78
68329;BME280;55182;56.864;60.554;2023-02-15T08:44:12;77837.19;;;-143.60;64.96
68329;BME280;55182;56.864;60.554;2023-02-15T08:46:40;77831.16;;;-143.60;64.21
68329;BME280;55182;56.864;60.554;2023-02-15T08:49:05;77825.13;;;-143.60;64.19
68329;BME280;55182;56.864;60.554;2023-02-15T08:51:35;77825.13;;;-143.60;64.95
68329;BME280;55182;56.864;60.554;2023-02-15T08:54:02;77815.06;;;-143.60;64.73
68329;BME280;55182;56.864;60.554;2023-02-15T08:56:29;77803.00;;;-143.60;64.86
68329;BME280;55182;56.864;60.554;2023-02-15T08:58:54;77798.97;;;-143.60;64.31
68329;BME280;55182;56.864;60.554;2023-02-15T09:01:21;77786.91;;;-143.60;64.16
68329;BME280;55182;56.864;60.554;2023-02-15T09:03:48;77782.91;;;-143.60;64.09
68329;BME280;55182;56.864;60.554;2023-02-15T09:06:16;77770.84;;;-143.60;63.08
68329;BME280;55182;56.864;60.554;2023-02-15T09:08:41;77742.69;;;-143.60;63.52
68329;BME280;55182;56.864;60.554;2023-02-15T09:11:11;77724.59;;;-143.60;63.32
68329;BME280;55182;56.864;60.554;2023-02-15T09:13:38;77712.53;;;-143.60;62.26
68329;BME280;55182;56.864;60.554;2023-02-15T09:16:05;77704.50;;;-143.60;62.80
68329;BME280;55182;56.864;60.554;2023-02-15T09:18:31;77690.44;;;-143.60;61.79
68329;BME280;55182;56.864;60.554;2023-02-15T09:21:03;77698.47;;;-143.60;62.08
68329;BME280;55182;56.864;60.554;2023-02-15T09:23:29;77710.53;;;-143.60;62.22
68329;BME280;55182;56.864;60.554;2023-02-15T09:25:54;77706.50;;;-143.60;61.53
68329;BME280;55182;56.864;60.554;2023-02-15T09:28:19;77702.50;;;-143.60;62.20
68329;BME280;55182;56.864;60.554;2023-02-15T09:30:45;77700.47;;;-143.60;61.28
68329;BME280;55182;56.864;60.554;2023-02-15T09:33:10;77702.50;;;-143.60;62.46
68329;BME280;55182;56.864;60.554;2023-02-15T09:35:36;77700.47;;;-143.60;62.55
68329;BME280;55182;56.864;60.554;2023-02-15T09:38:01;77692.44;;;-143.60;62.33
68329;BME280;55182;56.864;60.554;2023-02-15T09:40:27;77692.44;;;-143.60;62.17
68329;BME280;55182;56.864;60.554;2023-02-15T09:43:10;77702.50;;;-143.60;61.79
68329;BME280;55182;56.864;60.554;2023-02-15T09:45:54;77704.50;;;-143.60;61.89
68329;BME280;55182;56.864;60.554;2023-02-15T09:48:27;77702.50;;;-143.60;62.21
68329;BME280;55182;56.864;60.554;2023-02-15T10:00:57;77702.50;;;-143.60;62.09
68329;BME280;55182;56.864;60.554;2023-02-15T10:03:32;77690.44;;;-143.60;61.64
68329;BME280;55182;56.864;60.554;2023-02-15T10:06:10;77692.44;;;-143.60;61.77
68329;BME280;55182;56.864;60.554;2023-02-15T10:11:11;77694.44;;;-143.60;61.69
68329;BME280;55182;56.864;60.554;2023-02-15T10:13:42;77712.53;;;-143.60;61.72
68329;BME280;55182;56.864;60.554;2023-02-15T10:24:10;77762.78;;;-143.60;62.65
68329;BME280;55182;56.864;60.554;2023-02-15T10:34:31;77811.03;;;-143.60;62.52
68329;BME280;55182;56.864;60.554;2023-02-15T10:50:12;77843.22;;;-143.60;63.74
68329;BME280;55182;56.864;60.554;2023-02-15T11:02:58;77847.22;;;-143.60;63.86
68329;BME280;55182;56.864;60.554;2023-02-15T11:07:59;77861.31;;;-143.60;63.47
68329;BME280;55182;56.864;60.554;2023-02-15T11:13:14;77875.38;;;-143.60;63.66
68329;BME280;55182;56.864;60.554;2023-02-15T11:15:53;77879.41;;;-143.60;63.60
68329;BME280;55182;56.864;60.554;2023-02-15T11:18:25;77875.38;;;-143.60;63.73
68329;BME280;55182;56.864;60.554;2023-02-15T11:20:54;77875.38;;;-143.60;63.37
68329;BME280;55182;56.864;60.554;2023-02-15T11:23:20;77887.44;;;-143.60;63.43
68329;BME280;55182;56.864;60.554;2023-02-15T11:26:11;77893.47;;;-143.60;63.30
68329;BME280;55182;56.864;60.554;2023-02-15T11:31:25;77911.56;;;-143.60;63.67
68329;BME280;55182;56.864;60.554;2023-02-15T11:33:51;77919.59;;;-143.60;63.56
68329;BME280;55182;56.864;60.554;2023-02-15T11:39:14;77931.66;;;-143.60;64.06
68329;BME280;55182;56.864;60.554;2023-02-15T11:41:41;77939.72;;;-143.60;64.60
68329;BME280;55182;56.864;60.554;2023-02-15T11:44:14;77947.75;;;-143.60;64.04
68329;BME280;55182;56.864;60.554;2023-02-15T11:46:41;77957.81;;;-143.60;64.32
68329;BME280;55182;56.864;60.554;2023-02-15T11:51:51;77975.91;;;-143.60;64.10
68329;BME280;55182;56.864;60.554;2023-02-15T11:54:18;77981.94;;;-143.60;64.99
68329;BME280;55182;56.864;60.554;2023-02-15T11:56:44;77991.97;;;-143.60;65.10
68329;BME280;55182;56.864;60.554;2023-02-15T11:59:10;78000.03;;;-143.60;64.59
68329;BME280;55182;56.864;60.554;2023-02-15T12:01:40;78004.03;;;-143.60;64.25
68329;BME280;55182;56.864;60.554;2023-02-15T12:06:37;78008.06;;;-143.60;64.75
68329;BME280;55182;56.864;60.554;2023-02-15T12:09:10;78020.13;;;-143.60;64.83
68329;BME280;55182;56.864;60.554;2023-02-15T12:11:41;78028.16;;;-143.60;65.15
68329;BME280;55182;56.864;60.554;2023-02-15T12:14:10;78040.22;;;-143.60;64.94
68329;BME280;55182;56.864;60.554;2023-02-15T12:16:46;78044.25;;;-143.60;64.97
68329;BME280;55182;56.864;60.554;2023-02-15T12:21:44;78058.31;;;-143.60;64.32
68329;BME280;55182;56.864;60.554;2023-02-15T12:24:18;78068.38;;;-143.60;63.78
68329;BME280;55182;56.864;60.554;2023-02-15T12:26:55;78076.41;;;-143.60;64.28
68329;BME280;55182;56.864;60.554;2023-02-15T12:29:21;78094.50;;;-143.60;64.32
68329;BME280;55182;56.864;60.554;2023-02-15T12:31:49;78104.56;;;-143.60;64.52
68329;BME280;55182;56.864;60.554;2023-02-15T12:34:26;78122.66;;;-143.60;64.82
68329;BME280;55182;56.864;60.554;2023-02-15T12:36:55;78148.78;;;-143.60;65.28
68329;BME280;55182;56.864;60.554;2023-02-15T12:39:22;78158.84;;;-143.60;65.64
68329;BME280;55182;56.864;60.554;2023-02-15T12:44:24;78180.97;;;-143.60;66.33
68329;BME280;55182;56.864;60.554;2023-02-15T12:49:29;78197.03;;;-143.60;66.88
68329;BME280;55182;56.864;60.554;2023-02-15T12:51:56;78201.06;;;-143.60;67.22
68329;BME280;55182;56.864;60.554;2023-02-15T12:56:47;78227.19;;;-143.60;67.83
68329;BME280;55182;56.864;60.554;2023-02-15T12:59:13;78233.22;;;-143.60;67.88
68329;BME280;55182;56.864;60.554;2023-02-15T13:01:39;78243.28;;;-143.60;68.23
68329;BME280;55182;56.864;60.554;2023-02-15T13:04:12;78245.28;;;-143.60;67.99
68329;BME280;55182;56.864;60.554;2023-02-15T13:06:45;78249.31;;;-143.60;68.37
68329;BME280;55182;56.864;60.554;2023-02-15T13:09:15;78261.38;;;-143.60;68.60
68329;BME280;55182;56.864;60.554;2023-02-15T13:11:42;78271.44;;;-143.60;68.62
68329;BME280;55182;56.864;60.554;2023-02-15T13:14:18;78277.47;;;-143.60;68.91
68329;BME280;55182;56.864;60.554;2023-02-15T13:16:45;78285.50;;;-143.60;68.85
68329;BME280;55182;56.864;60.554;2023-02-15T13:19:15;78299.59;;;-143.60;69.12
68329;BME280;55182;56.864;60.554;2023-02-15T13:21:46;78303.59;;;-143.60;69.02
68329;BME280;55182;56.864;60.554;2023-02-15T13:24:26;78307.63;;;-143.60;69.44
68329;BME280;55182;56.864;60.554;2023-02-15T13:26:54;78311.66;;;-143.60;69.30
68329;BME280;55182;56.864;60.554;2023-02-15T13:29:42;78311.66;;;-143.60;69.38
68329;BME280;55182;56.864;60.554;2023-02-15T13:32:10;78325.72;;;-143.60;69.54
68329;BME280;55182;56.864;60.554;2023-02-15T13:34:37;78333.75;;;-143.60;69.88
68329;BME280;55182;56.864;60.554;2023-02-15T13:39:34;78341.81;;;-143.60;70.31
68329;BME280;55182;56.864;60.554;2023-02-15T13:42:13;78357.88;;;-143.60;70.33
68329;BME280;55182;56.864;60.554;2023-02-15T13:44:57;78361.91;;;-143.60;70.56
68329;BME280;55182;56.864;60.554;2023-02-15T13:47:34;78373.97;;;-143.60;70.79
68329;BME280;55182;56.864;60.554;2023-02-15T13:50:23;78373.97;;;-143.60;70.66
68329;BME280;55182;56.864;60.554;2023-02-15T13:55:56;78390.06;;;-143.60;71.09
68329;BME280;55182;56.864;60.554;2023-02-15T13:58:32;78398.09;;;-143.60;71.34
68329;BME280;55182;56.864;60.554;2023-02-15T14:01:10;78406.13;;;-143.60;71.11
68329;BME280;55182;56.864;60.554;2023-02-15T14:11:04;78424.25;;;-143.60;71.79
68329;BME280;55182;56.864;60.554;2023-02-15T14:18:44;78438.31;;;-143.60;72.13
68329;BME280;55182;56.864;60.554;2023-02-15T14:26:20;78436.31;;;-143.60;71.70
68329;BME280;55182;56.864;60.554;2023-02-15T14:31:16;78416.19;;;-143.60;70.82
68329;BME280;55182;56.864;60.554;2023-02-15T14:33:47;78418.22;;;-143.60;70.61
68329;BME280;55182;56.864;60.554;2023-02-15T14:36:16;78426.25;;;-143.60;70.72
68329;BME280;55182;56.864;60.554;2023-02-15T14:41:17;78438.31;;;-143.60;70.31
68329;BME280;55182;56.864;60.554;2023-02-15T14:46:31;78460.44;;;-143.60;70.75